Almyra, Arkansas
Current Conditions -  °F | °C
As of 6:35 PM on Friday 19 Dec 2014 (Local Time) from KSGT Reporting Station
Overcast Overcast  
Wind Chill: 35°   Ceiling: 8000
Heat Index: 41°   Visibility: NA
Dew Point: 36°   Wind: 10mph
Humidity: 81%   Direction: 20°NNE
Pressure: 30.23"   Gusts: NA
Location:  34.41°N, 91.41°W
Report Text: KSGT 200035Z 02009KT OVC080 05/02 A3023 RMK AO1
Loading
Personal Weather Stations






























Interactive Weather Map New forecast layout! Learn more

10-Day Weather Forecast

Advertisements
Track Severe Weather on mobile